AUA555 LOWW-LIRF
Flight info
| Callsign | AUA555 |
|---|---|
| Flight time | 1h 14m |
| Altitude | 38000 |
| Route | RUPET DCT GRZ DCT GIRDA DCT BAXON/N0441F370 DCT UNUMU DCT ETPOK DCT RITEB |
| Aircraft | A320/M-SDE3FGHIRWY/LB1 |
Departure
| Time | 2026-05-05 14:06 |
|---|---|
| Airport | Vienna International Airport (LOWW) |
Arrival
| Time | 2026-05-05 15:20 |
|---|---|
| Airport | Rome–Fiumicino Leonardo da Vinci International Airport (LIRF) |
| Time | Latitude | Longitude | Altitude | Speed | Heading |
|---|---|---|---|---|---|
| 2026-05-05 13:14 | 48.11824 | 16.56984 | 611 ft | 0 kts | 206° |
| 2026-05-05 13:22 | 48.11825 | 16.56984 | 611 ft | 0 kts | 206° |
| 2026-05-05 13:50 | 48.11839 | 16.56994 | 625 ft | 4 kts | 206° |
| 2026-05-05 13:50 | 48.11859 | 16.57009 | 623 ft | 3 kts | 205° |
| 2026-05-05 13:50 | 48.11883 | 16.57018 | 615 ft | 4 kts | 162° |
| 2026-05-05 13:50 | 48.11902 | 16.56997 | 627 ft | 3 kts | 116° |
| 2026-05-05 13:51 | 48.11909 | 16.56977 | 620 ft | 0 kts | 116° |
| 2026-05-05 13:56 | 48.11895 | 16.57019 | 615 ft | 7 kts | 116° |
| 2026-05-05 13:56 | 48.11872 | 16.57090 | 614 ft | 9 kts | 116° |
| 2026-05-05 13:56 | 48.11855 | 16.57171 | 614 ft | 11 kts | 91° |
| 2026-05-05 13:57 | 48.11836 | 16.57278 | 611 ft | 11 kts | 103° |
| 2026-05-05 13:57 | 48.11867 | 16.57318 | 611 ft | 6 kts | 356° |
| 2026-05-05 13:57 | 48.11922 | 16.57297 | 621 ft | 10 kts | 345° |
| 2026-05-05 13:57 | 48.11984 | 16.57317 | 618 ft | 10 kts | 58° |
| 2026-05-05 13:58 | 48.12003 | 16.57404 | 611 ft | 7 kts | 73° |
| 2026-05-05 13:58 | 48.12012 | 16.57453 | 615 ft | 4 kts | 78° |
| 2026-05-05 13:58 | 48.12013 | 16.57474 | 614 ft | 0 kts | 90° |
| 2026-05-05 14:02 | 48.12012 | 16.57485 | 611 ft | 2 kts | 96° |
| 2026-05-05 14:02 | 48.12009 | 16.57510 | 621 ft | 2 kts | 100° |
| 2026-05-05 14:03 | 48.12002 | 16.57551 | 620 ft | 5 kts | 104° |
| 2026-05-05 14:03 | 48.11998 | 16.57577 | 615 ft | 1 kts | 104° |
| 2026-05-05 14:03 | 48.11997 | 16.57580 | 614 ft | 0 kts | 104° |
| 2026-05-05 14:04 | 48.11995 | 16.57597 | 611 ft | 6 kts | 104° |
| 2026-05-05 14:04 | 48.11982 | 16.57673 | 611 ft | 9 kts | 104° |
| 2026-05-05 14:04 | 48.11960 | 16.57769 | 622 ft | 6 kts | 114° |
| 2026-05-05 14:04 | 48.11935 | 16.57829 | 621 ft | 7 kts | 138° |
| 2026-05-05 14:05 | 48.11911 | 16.57846 | 616 ft | 0 kts | 162° |
| 2026-05-05 14:05 | 48.11851 | 16.57873 | 617 ft | 33 kts | 164° |
| 2026-05-05 14:06 | 48.11403 | 16.58062 | 613 ft | 97 kts | 164° |
| 2026-05-05 14:06 | 48.10574 | 16.58411 | 624 ft | 147 kts | 165° |
| 2026-05-05 14:06 | 48.09599 | 16.58812 | 1268 ft | 145 kts | 169° |
| 2026-05-05 14:06 | 48.08619 | 16.59202 | 1976 ft | 147 kts | 167° |
| 2026-05-05 14:07 | 48.07566 | 16.59624 | 2418 ft | 167 kts | 168° |
| 2026-05-05 14:07 | 48.06371 | 16.60035 | 2784 ft | 186 kts | 179° |
| 2026-05-05 14:07 | 48.05098 | 16.59362 | 3074 ft | 213 kts | 220° |
| 2026-05-05 14:07 | 48.04055 | 16.57649 | 3579 ft | 236 kts | 225° |
| 2026-05-05 14:08 | 48.02924 | 16.55742 | 4194 ft | 251 kts | 226° |
| 2026-05-05 14:08 | 48.01758 | 16.53812 | 5247 ft | 247 kts | 225° |
| 2026-05-05 14:08 | 48.00599 | 16.51925 | 6191 ft | 251 kts | 226° |
| 2026-05-05 14:08 | 47.99395 | 16.49994 | 7033 ft | 255 kts | 225° |
| 2026-05-05 14:09 | 47.98178 | 16.48065 | 7960 ft | 256 kts | 225° |
| 2026-05-05 14:09 | 47.96944 | 16.46118 | 8804 ft | 260 kts | 227° |
| 2026-05-05 14:09 | 47.95926 | 16.43849 | 9604 ft | 268 kts | 244° |
| 2026-05-05 14:09 | 47.95356 | 16.41172 | 10224 ft | 280 kts | 253° |
| 2026-05-05 14:10 | 47.94837 | 16.38236 | 10482 ft | 304 kts | 253° |
| 2026-05-05 14:10 | 47.94278 | 16.35093 | 10902 ft | 319 kts | 253° |
| 2026-05-05 14:10 | 47.93704 | 16.31860 | 11593 ft | 325 kts | 253° |
| 2026-05-05 14:10 | 47.93127 | 16.28622 | 12345 ft | 328 kts | 253° |
| 2026-05-05 14:11 | 47.92531 | 16.25308 | 13131 ft | 331 kts | 254° |
| 2026-05-05 14:11 | 47.91926 | 16.21969 | 13849 ft | 335 kts | 253° |
| 2026-05-05 14:11 | 47.91313 | 16.18599 | 14518 ft | 338 kts | 253° |
| 2026-05-05 14:11 | 47.90692 | 16.15202 | 15183 ft | 341 kts | 253° |
| 2026-05-05 14:12 | 47.90061 | 16.11770 | 15813 ft | 346 kts | 253° |
| 2026-05-05 14:12 | 47.89422 | 16.08296 | 16481 ft | 349 kts | 253° |
| 2026-05-05 14:12 | 47.88779 | 16.04794 | 17110 ft | 353 kts | 253° |
| 2026-05-05 14:12 | 47.88012 | 16.01309 | 17721 ft | 355 kts | 244° |
| 2026-05-05 14:13 | 47.86746 | 15.98199 | 18309 ft | 357 kts | 231° |
| 2026-05-05 14:13 | 47.84969 | 15.95598 | 18824 ft | 361 kts | 217° |
| 2026-05-05 14:13 | 47.82776 | 15.93710 | 19373 ft | 365 kts | 203° |
| 2026-05-05 14:13 | 47.80413 | 15.92356 | 19898 ft | 368 kts | 202° |
| 2026-05-05 14:14 | 47.78005 | 15.90995 | 20497 ft | 370 kts | 201° |
| 2026-05-05 14:14 | 47.75577 | 15.89624 | 21045 ft | 373 kts | 202° |
| 2026-05-05 14:14 | 47.73135 | 15.88243 | 21594 ft | 377 kts | 201° |
| 2026-05-05 14:14 | 47.70706 | 15.86869 | 22171 ft | 379 kts | 201° |
| 2026-05-05 14:15 | 47.68222 | 15.85462 | 22714 ft | 382 kts | 201° |
| 2026-05-05 14:15 | 47.65732 | 15.84050 | 23260 ft | 385 kts | 201° |
| 2026-05-05 14:15 | 47.63216 | 15.82627 | 23724 ft | 387 kts | 201° |
| 2026-05-05 14:15 | 47.60722 | 15.81219 | 24163 ft | 389 kts | 201° |
| 2026-05-05 14:16 | 47.58173 | 15.79786 | 24578 ft | 391 kts | 202° |
| 2026-05-05 14:16 | 47.55620 | 15.78356 | 25029 ft | 393 kts | 202° |
| 2026-05-05 14:16 | 47.53057 | 15.76922 | 25432 ft | 395 kts | 201° |
| 2026-05-05 14:16 | 47.50472 | 15.75473 | 25842 ft | 397 kts | 202° |
| 2026-05-05 14:17 | 47.47885 | 15.74021 | 26223 ft | 399 kts | 202° |
| 2026-05-05 14:17 | 47.45278 | 15.72557 | 26608 ft | 401 kts | 202° |
| 2026-05-05 14:17 | 47.42664 | 15.71089 | 27003 ft | 403 kts | 202° |
| 2026-05-05 14:17 | 47.40030 | 15.69609 | 27381 ft | 406 kts | 202° |
| 2026-05-05 14:18 | 47.37405 | 15.68139 | 27756 ft | 408 kts | 202° |
| 2026-05-05 14:18 | 47.34738 | 15.66650 | 28117 ft | 410 kts | 202° |
| 2026-05-05 14:18 | 47.32058 | 15.65156 | 28436 ft | 413 kts | 202° |
| 2026-05-05 14:18 | 47.29362 | 15.63652 | 28783 ft | 415 kts | 202° |
| 2026-05-05 14:19 | 47.26689 | 15.62158 | 29115 ft | 416 kts | 202° |
| 2026-05-05 14:19 | 47.23973 | 15.60644 | 29438 ft | 418 kts | 202° |
| 2026-05-05 14:19 | 47.21239 | 15.59129 | 29771 ft | 420 kts | 202° |
| 2026-05-05 14:19 | 47.18489 | 15.57609 | 30065 ft | 422 kts | 202° |
| 2026-05-05 14:20 | 47.15734 | 15.56087 | 30315 ft | 424 kts | 202° |
| 2026-05-05 14:20 | 47.12960 | 15.54555 | 30561 ft | 426 kts | 202° |
| 2026-05-05 14:20 | 47.10185 | 15.53019 | 30802 ft | 427 kts | 202° |
| 2026-05-05 14:20 | 47.07419 | 15.51486 | 31034 ft | 429 kts | 202° |
| 2026-05-05 14:21 | 47.04620 | 15.49935 | 31294 ft | 430 kts | 202° |
| 2026-05-05 14:21 | 47.01826 | 15.48396 | 31626 ft | 429 kts | 202° |
| 2026-05-05 14:21 | 46.99032 | 15.46864 | 31964 ft | 427 kts | 202° |
| 2026-05-05 14:21 | 46.96260 | 15.45292 | 32291 ft | 426 kts | 206° |
| 2026-05-05 14:22 | 46.93659 | 15.43238 | 32609 ft | 424 kts | 213° |
| 2026-05-05 14:22 | 46.91157 | 15.40934 | 32929 ft | 423 kts | 213° |
| 2026-05-05 14:22 | 46.88702 | 15.38683 | 33255 ft | 422 kts | 213° |
| 2026-05-05 14:22 | 46.86213 | 15.36404 | 33583 ft | 421 kts | 213° |
| 2026-05-05 14:23 | 46.83724 | 15.34131 | 33906 ft | 420 kts | 213° |
| 2026-05-05 14:23 | 46.81237 | 15.31864 | 34175 ft | 420 kts | 213° |
| 2026-05-05 14:23 | 46.78758 | 15.29608 | 34437 ft | 420 kts | 213° |
| 2026-05-05 14:23 | 46.76274 | 15.27352 | 34683 ft | 420 kts | 213° |
| 2026-05-05 14:24 | 46.73794 | 15.25097 | 34922 ft | 420 kts | 213° |
| 2026-05-05 14:24 | 46.71339 | 15.22869 | 35149 ft | 420 kts | 213° |
| 2026-05-05 14:24 | 46.68856 | 15.20612 | 35372 ft | 420 kts | 213° |
| 2026-05-05 14:24 | 46.66370 | 15.18351 | 35590 ft | 420 kts | 213° |
| 2026-05-05 14:25 | 46.63883 | 15.16092 | 35795 ft | 421 kts | 214° |
| 2026-05-05 14:25 | 46.61393 | 15.13834 | 35901 ft | 420 kts | 214° |
| 2026-05-05 14:25 | 46.56438 | 15.09354 | 35931 ft | 418 kts | 214° |
| 2026-05-05 14:26 | 46.51524 | 15.04934 | 35937 ft | 418 kts | 213° |
| 2026-05-05 14:26 | 46.46577 | 15.00492 | 35942 ft | 418 kts | 214° |
| 2026-05-05 14:27 | 46.41637 | 14.96060 | 35949 ft | 418 kts | 214° |
| 2026-05-05 14:27 | 46.36701 | 14.91641 | 35962 ft | 418 kts | 214° |
| 2026-05-05 14:28 | 46.31749 | 14.87219 | 35984 ft | 418 kts | 214° |
| 2026-05-05 14:28 | 46.26801 | 14.82810 | 36002 ft | 417 kts | 214° |
| 2026-05-05 14:29 | 46.21854 | 14.78403 | 36017 ft | 417 kts | 214° |
| 2026-05-05 14:29 | 46.16941 | 14.74035 | 36017 ft | 417 kts | 214° |
| 2026-05-05 14:30 | 46.11991 | 14.69640 | 36006 ft | 417 kts | 214° |
| 2026-05-05 14:30 | 46.07037 | 14.65252 | 36003 ft | 418 kts | 214° |
| 2026-05-05 14:31 | 46.02067 | 14.60872 | 36001 ft | 419 kts | 214° |
| 2026-05-05 14:31 | 45.97117 | 14.56520 | 36002 ft | 419 kts | 214° |
| 2026-05-05 14:32 | 45.92196 | 14.52202 | 35999 ft | 419 kts | 214° |
| 2026-05-05 14:32 | 45.87140 | 14.47769 | 35998 ft | 419 kts | 214° |
| 2026-05-05 14:33 | 45.82191 | 14.43428 | 36006 ft | 419 kts | 214° |
| 2026-05-05 14:33 | 45.77202 | 14.39071 | 36012 ft | 419 kts | 214° |
| 2026-05-05 14:34 | 45.73052 | 14.35458 | 36017 ft | 419 kts | 214° |
| 2026-05-05 14:34 | 45.68084 | 14.31143 | 36022 ft | 419 kts | 214° |
| 2026-05-05 14:35 | 45.63086 | 14.26806 | 36023 ft | 419 kts | 214° |
| 2026-05-05 14:35 | 45.58080 | 14.22479 | 36025 ft | 419 kts | 214° |
| 2026-05-05 14:36 | 45.53113 | 14.18190 | 36023 ft | 419 kts | 214° |
| 2026-05-05 14:36 | 45.48103 | 14.13877 | 36028 ft | 420 kts | 213° |
| 2026-05-05 14:37 | 45.42823 | 14.10329 | 36025 ft | 423 kts | 208° |
| 2026-05-05 14:37 | 45.37452 | 14.06875 | 36022 ft | 423 kts | 208° |
| 2026-05-05 14:38 | 45.32091 | 14.03427 | 36021 ft | 423 kts | 208° |
| 2026-05-05 14:38 | 45.26751 | 14.00002 | 36022 ft | 423 kts | 208° |
| 2026-05-05 14:39 | 45.21378 | 13.96567 | 36024 ft | 423 kts | 208° |
| 2026-05-05 14:39 | 45.16001 | 13.93131 | 36025 ft | 423 kts | 208° |
| 2026-05-05 14:40 | 45.10638 | 13.89699 | 36026 ft | 422 kts | 208° |
| 2026-05-05 14:40 | 45.05311 | 13.86307 | 36029 ft | 422 kts | 208° |
| 2026-05-05 14:41 | 44.99953 | 13.82909 | 36031 ft | 421 kts | 208° |
| 2026-05-05 14:41 | 44.94603 | 13.79520 | 36028 ft | 420 kts | 208° |
| 2026-05-05 14:42 | 44.89293 | 13.76154 | 36026 ft | 420 kts | 208° |
| 2026-05-05 14:42 | 44.83965 | 13.72783 | 36026 ft | 419 kts | 208° |
| 2026-05-05 14:43 | 44.78640 | 13.69425 | 36025 ft | 419 kts | 208° |
| 2026-05-05 14:43 | 44.73303 | 13.66071 | 36024 ft | 419 kts | 208° |
| 2026-05-05 14:44 | 44.67983 | 13.62735 | 36024 ft | 418 kts | 208° |
| 2026-05-05 14:44 | 44.62698 | 13.59435 | 36020 ft | 418 kts | 208° |
| 2026-05-05 14:45 | 44.57395 | 13.56118 | 36015 ft | 417 kts | 208° |
| 2026-05-05 14:45 | 44.52091 | 13.52807 | 36010 ft | 416 kts | 208° |
| 2026-05-05 14:46 | 44.46800 | 13.49517 | 36007 ft | 416 kts | 207° |
| 2026-05-05 14:46 | 44.41507 | 13.46226 | 36005 ft | 415 kts | 208° |
| 2026-05-05 14:47 | 44.36383 | 13.42558 | 36002 ft | 413 kts | 212° |
| 2026-05-05 14:47 | 44.31409 | 13.38629 | 35997 ft | 412 kts | 213° |
| 2026-05-05 14:48 | 44.26403 | 13.34707 | 35995 ft | 412 kts | 212° |
| 2026-05-05 14:48 | 44.21362 | 13.30875 | 35993 ft | 412 kts | 212° |
| 2026-05-05 14:49 | 44.16339 | 13.27098 | 35978 ft | 411 kts | 212° |
| 2026-05-05 14:49 | 44.11305 | 13.23306 | 35965 ft | 411 kts | 212° |
| 2026-05-05 14:50 | 44.06260 | 13.19514 | 35975 ft | 411 kts | 212° |
| 2026-05-05 14:50 | 44.01254 | 13.15757 | 35974 ft | 411 kts | 212° |
| 2026-05-05 14:51 | 43.96238 | 13.12001 | 35972 ft | 410 kts | 212° |
| 2026-05-05 14:51 | 43.91215 | 13.08234 | 35972 ft | 410 kts | 212° |
| 2026-05-05 14:52 | 43.86200 | 13.04482 | 35978 ft | 409 kts | 212° |
| 2026-05-05 14:52 | 43.81184 | 13.00745 | 35980 ft | 409 kts | 213° |
| 2026-05-05 14:53 | 43.76176 | 12.97021 | 35979 ft | 409 kts | 213° |
| 2026-05-05 14:53 | 43.71195 | 12.93320 | 35981 ft | 409 kts | 213° |
| 2026-05-05 14:54 | 43.66170 | 12.89606 | 35980 ft | 409 kts | 213° |
| 2026-05-05 14:54 | 43.61156 | 12.85899 | 35660 ft | 407 kts | 213° |
| 2026-05-05 14:55 | 43.58659 | 12.84047 | 34963 ft | 407 kts | 213° |
| 2026-05-05 14:55 | 43.56190 | 12.82218 | 34284 ft | 407 kts | 213° |
| 2026-05-05 14:55 | 43.53673 | 12.80356 | 33770 ft | 403 kts | 213° |
| 2026-05-05 14:55 | 43.51243 | 12.78568 | 33209 ft | 399 kts | 213° |
| 2026-05-05 14:56 | 43.48798 | 12.76776 | 32665 ft | 395 kts | 213° |
| 2026-05-05 14:56 | 43.46372 | 12.74999 | 32111 ft | 392 kts | 213° |
| 2026-05-05 14:56 | 43.43970 | 12.73236 | 31579 ft | 389 kts | 213° |
| 2026-05-05 14:56 | 43.41600 | 12.71481 | 31060 ft | 385 kts | 214° |
| 2026-05-05 14:57 | 43.39318 | 12.69660 | 30583 ft | 382 kts | 216° |
| 2026-05-05 14:57 | 43.37064 | 12.67748 | 30088 ft | 379 kts | 217° |
| 2026-05-05 14:57 | 43.34841 | 12.65812 | 29511 ft | 377 kts | 217° |
| 2026-05-05 14:57 | 43.32636 | 12.63889 | 28958 ft | 374 kts | 217° |
| 2026-05-05 14:58 | 43.30435 | 12.61986 | 28416 ft | 372 kts | 216° |
| 2026-05-05 14:58 | 43.28243 | 12.60113 | 27903 ft | 370 kts | 216° |
| 2026-05-05 14:58 | 43.26060 | 12.58265 | 27381 ft | 367 kts | 216° |
| 2026-05-05 14:58 | 43.23889 | 12.56440 | 26874 ft | 365 kts | 216° |
| 2026-05-05 14:59 | 43.21725 | 12.54630 | 26379 ft | 363 kts | 216° |
| 2026-05-05 14:59 | 43.19560 | 12.52825 | 25899 ft | 361 kts | 216° |
| 2026-05-05 14:59 | 43.17444 | 12.51056 | 25436 ft | 359 kts | 216° |
| 2026-05-05 14:59 | 43.15312 | 12.49265 | 24960 ft | 357 kts | 216° |
| 2026-05-05 15:00 | 43.13192 | 12.47486 | 24497 ft | 356 kts | 216° |
| 2026-05-05 15:00 | 43.11795 | 12.46316 | 24187 ft | 355 kts | 216° |
| 2026-05-05 15:00 | 43.08982 | 12.43966 | 23558 ft | 353 kts | 216° |
| 2026-05-05 15:00 | 43.06899 | 12.42221 | 23039 ft | 351 kts | 216° |
| 2026-05-05 15:01 | 43.04837 | 12.40493 | 22548 ft | 348 kts | 215° |
| 2026-05-05 15:01 | 43.02778 | 12.38774 | 22083 ft | 346 kts | 215° |
| 2026-05-05 15:01 | 43.00729 | 12.37068 | 21628 ft | 343 kts | 215° |
| 2026-05-05 15:01 | 42.98689 | 12.35370 | 21184 ft | 341 kts | 215° |
| 2026-05-05 15:02 | 42.96673 | 12.33695 | 20745 ft | 338 kts | 214° |
| 2026-05-05 15:02 | 42.94692 | 12.32048 | 20305 ft | 336 kts | 214° |
| 2026-05-05 15:02 | 42.92696 | 12.30390 | 19888 ft | 334 kts | 214° |
| 2026-05-05 15:02 | 42.90713 | 12.28742 | 19472 ft | 332 kts | 214° |
| 2026-05-05 15:03 | 42.88745 | 12.27112 | 19062 ft | 330 kts | 214° |
| 2026-05-05 15:03 | 42.86785 | 12.25492 | 18674 ft | 328 kts | 214° |
| 2026-05-05 15:03 | 42.84862 | 12.23901 | 18284 ft | 326 kts | 214° |
| 2026-05-05 15:03 | 42.82930 | 12.22300 | 17876 ft | 324 kts | 214° |
| 2026-05-05 15:04 | 42.81008 | 12.20706 | 17436 ft | 323 kts | 214° |
| 2026-05-05 15:04 | 42.79088 | 12.19116 | 17056 ft | 321 kts | 214° |
| 2026-05-05 15:04 | 42.77152 | 12.17616 | 16671 ft | 320 kts | 207° |
| 2026-05-05 15:04 | 42.75023 | 12.16719 | 16290 ft | 323 kts | 193° |
| 2026-05-05 15:05 | 42.70558 | 12.16410 | 15789 ft | 314 kts | 186° |
| 2026-05-05 15:05 | 42.68394 | 12.16376 | 15568 ft | 309 kts | 183° |
| 2026-05-05 15:05 | 42.66277 | 12.16450 | 15260 ft | 307 kts | 182° |
| 2026-05-05 15:06 | 42.64148 | 12.16577 | 14934 ft | 305 kts | 181° |
| 2026-05-05 15:06 | 42.62028 | 12.16718 | 14647 ft | 304 kts | 181° |
| 2026-05-05 15:06 | 42.59916 | 12.16856 | 14387 ft | 303 kts | 181° |
| 2026-05-05 15:06 | 42.57815 | 12.16987 | 14122 ft | 301 kts | 181° |
| 2026-05-05 15:07 | 42.55728 | 12.17111 | 13725 ft | 298 kts | 181° |
| 2026-05-05 15:07 | 42.53664 | 12.17227 | 13091 ft | 296 kts | 182° |
| 2026-05-05 15:07 | 42.51641 | 12.17332 | 12529 ft | 293 kts | 181° |
| 2026-05-05 15:07 | 42.49598 | 12.17439 | 11943 ft | 291 kts | 182° |
| 2026-05-05 15:08 | 42.47580 | 12.17543 | 11321 ft | 288 kts | 181° |
| 2026-05-05 15:08 | 42.45604 | 12.17644 | 10704 ft | 285 kts | 181° |
| 2026-05-05 15:08 | 42.43625 | 12.17743 | 10198 ft | 283 kts | 182° |
| 2026-05-05 15:08 | 42.41660 | 12.17843 | 9732 ft | 281 kts | 181° |
| 2026-05-05 15:09 | 42.39707 | 12.17942 | 9221 ft | 279 kts | 181° |
| 2026-05-05 15:09 | 42.37773 | 12.18041 | 8737 ft | 276 kts | 181° |
| 2026-05-05 15:09 | 42.35858 | 12.18141 | 8222 ft | 274 kts | 181° |
| 2026-05-05 15:09 | 42.33961 | 12.18240 | 7707 ft | 272 kts | 181° |
| 2026-05-05 15:10 | 42.32077 | 12.18337 | 7220 ft | 270 kts | 181° |
| 2026-05-05 15:10 | 42.30232 | 12.18432 | 6740 ft | 267 kts | 181° |
| 2026-05-05 15:10 | 42.28381 | 12.18526 | 6262 ft | 265 kts | 181° |
| 2026-05-05 15:10 | 42.26540 | 12.18616 | 5849 ft | 263 kts | 181° |
| 2026-05-05 15:11 | 42.24720 | 12.18708 | 5470 ft | 260 kts | 180° |
| 2026-05-05 15:11 | 42.22915 | 12.18802 | 5109 ft | 256 kts | 180° |
| 2026-05-05 15:11 | 42.21178 | 12.18896 | 4990 ft | 241 kts | 180° |
| 2026-05-05 15:11 | 42.19549 | 12.18985 | 4869 ft | 231 kts | 179° |
| 2026-05-05 15:12 | 42.17965 | 12.19071 | 4748 ft | 224 kts | 180° |
| 2026-05-05 15:12 | 42.16429 | 12.19150 | 4623 ft | 217 kts | 180° |
| 2026-05-05 15:12 | 42.14949 | 12.19150 | 4363 ft | 212 kts | 189° |
| 2026-05-05 15:12 | 42.13526 | 12.18770 | 4135 ft | 206 kts | 193° |
| 2026-05-05 15:13 | 42.12129 | 12.18347 | 4030 ft | 207 kts | 193° |
| 2026-05-05 15:13 | 42.10731 | 12.17930 | 3743 ft | 205 kts | 193° |
| 2026-05-05 15:13 | 42.09397 | 12.17535 | 3504 ft | 202 kts | 193° |
| 2026-05-05 15:13 | 42.08026 | 12.17130 | 3208 ft | 201 kts | 192° |
| 2026-05-05 15:14 | 42.06662 | 12.17006 | 3042 ft | 195 kts | 175° |
| 2026-05-05 15:14 | 42.05379 | 12.17418 | 3024 ft | 185 kts | 165° |
| 2026-05-05 15:14 | 42.04163 | 12.17942 | 3035 ft | 182 kts | 165° |
| 2026-05-05 15:14 | 42.02948 | 12.18444 | 3042 ft | 182 kts | 165° |
| 2026-05-05 15:15 | 42.01731 | 12.18951 | 3037 ft | 183 kts | 165° |
| 2026-05-05 15:15 | 42.00546 | 12.19450 | 3065 ft | 170 kts | 165° |
| 2026-05-05 15:15 | 41.99479 | 12.19900 | 3008 ft | 156 kts | 165° |
| 2026-05-05 15:15 | 41.98470 | 12.20323 | 2869 ft | 149 kts | 165° |
| 2026-05-05 15:16 | 41.97497 | 12.20733 | 2711 ft | 144 kts | 165° |
| 2026-05-05 15:16 | 41.96549 | 12.21131 | 2534 ft | 141 kts | 165° |
| 2026-05-05 15:16 | 41.95637 | 12.21515 | 2344 ft | 134 kts | 165° |
| 2026-05-05 15:16 | 41.94753 | 12.21886 | 2196 ft | 133 kts | 165° |
| 2026-05-05 15:17 | 41.93879 | 12.22253 | 2017 ft | 131 kts | 164° |
| 2026-05-05 15:17 | 41.93013 | 12.22617 | 1839 ft | 129 kts | 164° |
| 2026-05-05 15:17 | 41.92168 | 12.22972 | 1661 ft | 128 kts | 164° |
| 2026-05-05 15:17 | 41.91316 | 12.23329 | 1481 ft | 128 kts | 163° |
| 2026-05-05 15:18 | 41.90461 | 12.23688 | 1307 ft | 129 kts | 163° |
| 2026-05-05 15:18 | 41.89598 | 12.24042 | 1118 ft | 130 kts | 163° |
| 2026-05-05 15:18 | 41.88738 | 12.24405 | 882 ft | 131 kts | 161° |
| 2026-05-05 15:18 | 41.87872 | 12.24780 | 691 ft | 131 kts | 161° |
| 2026-05-05 15:19 | 41.87010 | 12.25142 | 541 ft | 129 kts | 161° |
| 2026-05-05 15:19 | 41.86143 | 12.25486 | 370 ft | 130 kts | 160° |
| 2026-05-05 15:19 | 41.85299 | 12.25848 | 216 ft | 128 kts | 160° |
| 2026-05-05 15:19 | 41.84450 | 12.26207 | 50 ft | 127 kts | 160° |
| 2026-05-05 15:20 | 41.83684 | 12.26535 | 18 ft | 103 kts | 161° |
| 2026-05-05 15:20 | 41.83143 | 12.26763 | 11 ft | 64 kts | 163° |
| 2026-05-05 15:20 | 41.82776 | 12.26917 | 14 ft | 48 kts | 163° |
| 2026-05-05 15:20 | 41.82487 | 12.27036 | 13 ft | 42 kts | 162° |
| 2026-05-05 15:21 | 41.82219 | 12.27132 | 10 ft | 37 kts | 170° |
| 2026-05-05 15:21 | 41.81999 | 12.27123 | 11 ft | 30 kts | 191° |
| 2026-05-05 15:21 | 41.81823 | 12.27069 | 11 ft | 22 kts | 192° |
| 2026-05-05 15:21 | 41.81681 | 12.27052 | 12 ft | 21 kts | 170° |
| 2026-05-05 15:22 | 41.81585 | 12.27088 | 12 ft | 21 kts | 163° |
| 2026-05-05 15:22 | 41.81397 | 12.27167 | 12 ft | 22 kts | 162° |
| 2026-05-05 15:22 | 41.81299 | 12.27208 | 13 ft | 22 kts | 162° |
| 2026-05-05 15:22 | 41.81153 | 12.27270 | 12 ft | 22 kts | 162° |
| 2026-05-05 15:23 | 41.81004 | 12.27331 | 12 ft | 21 kts | 162° |
| 2026-05-05 15:23 | 41.80860 | 12.27340 | 12 ft | 21 kts | 189° |
| 2026-05-05 15:23 | 41.80713 | 12.27302 | 13 ft | 21 kts | 201° |
| 2026-05-05 15:23 | 41.80634 | 12.27147 | 13 ft | 20 kts | 251° |
| 2026-05-05 15:24 | 41.80600 | 12.27023 | 15 ft | 13 kts | 251° |
| 2026-05-05 15:24 | 41.80571 | 12.26916 | 14 ft | 12 kts | 249° |
| 2026-05-05 15:24 | 41.80544 | 12.26818 | 15 ft | 13 kts | 250° |
| 2026-05-05 15:24 | 41.80506 | 12.26681 | 15 ft | 17 kts | 249° |
| 2026-05-05 15:25 | 41.80467 | 12.26538 | 15 ft | 16 kts | 250° |
| 2026-05-05 15:25 | 41.80430 | 12.26406 | 15 ft | 14 kts | 247° |
| 2026-05-05 15:25 | 41.80366 | 12.26366 | 14 ft | 11 kts | 171° |
| 2026-05-05 15:25 | 41.80283 | 12.26401 | 14 ft | 13 kts | 162° |
| 2026-05-05 15:26 | 41.80196 | 12.26397 | 14 ft | 13 kts | 204° |
| 2026-05-05 15:26 | 41.80111 | 12.26342 | 14 ft | 14 kts | 204° |
| 2026-05-05 15:26 | 41.80016 | 12.26283 | 14 ft | 16 kts | 205° |
| 2026-05-05 15:26 | 41.79913 | 12.26219 | 14 ft | 17 kts | 204° |
| 2026-05-05 15:27 | 41.79819 | 12.26155 | 14 ft | 8 kts | 234° |
| 2026-05-05 15:27 | 41.79834 | 12.26076 | 15 ft | 11 kts | 296° |
| 2026-05-05 15:27 | 41.79872 | 12.25971 | 14 ft | 13 kts | 295° |
| 2026-05-05 15:27 | 41.79908 | 12.25865 | 14 ft | 10 kts | 278° |
| 2026-05-05 15:28 | 41.79856 | 12.25830 | 14 ft | 9 kts | 154° |
| 2026-05-05 15:28 | 41.79795 | 12.25819 | 14 ft | 10 kts | 206° |
| 2026-05-05 15:28 | 41.79729 | 12.25777 | 15 ft | 11 kts | 205° |
| 2026-05-05 15:28 | 41.79670 | 12.25740 | 14 ft | 8 kts | 205° |
| 2026-05-05 15:29 | 41.79633 | 12.25716 | 14 ft | 4 kts | 206° |
| 2026-05-05 15:29 | 41.79612 | 12.25720 | 14 ft | 4 kts | 129° |
| 2026-05-05 15:29 | 41.79602 | 12.25745 | 14 ft | 3 kts | 113° |
| 2026-05-05 15:29 | 41.79593 | 12.25769 | 14 ft | 2 kts | 115° |
| 2026-05-05 15:30 | 41.79593 | 12.25770 | 14 ft | 0 kts | 115° |